sensor_id;sensor_type;location;lat;lon;timestamp;temperature;humidity
22968;DHT22;11650;48.106;-1.696;2023-06-14T00:02:06;18.30;99.90
22968;DHT22;11650;48.106;-1.696;2023-06-14T00:04:34;18.40;99.90
22968;DHT22;11650;48.106;-1.696;2023-06-14T00:07:00;18.20;99.90
22968;DHT22;11650;48.106;-1.696;2023-06-14T00:09:26;18.20;99.90
22968;DHT22;11650;48.106;-1.696;2023-06-14T00:11:52;18.20;99.90
22968;DHT22;11650;48.106;-1.696;2023-06-14T00:14:18;18.40;99.90
22968;DHT22;11650;48.106;-1.696;2023-06-14T00:16:44;18.40;99.90
22968;DHT22;11650;48.106;-1.696;2023-06-14T00:19:09;18.20;99.90
22968;DHT22;11650;48.106;-1.696;2023-06-14T00:21:36;18.20;99.90
22968;DHT22;11650;48.106;-1.696;2023-06-14T00:24:03;18.30;99.90
22968;DHT22;11650;48.106;-1.696;2023-06-14T00:26:29;18.30;99.90
22968;DHT22;11650;48.106;-1.696;2023-06-14T00:28:55;18.20;99.90
22968;DHT22;11650;48.106;-1.696;2023-06-14T00:31:22;18.20;99.90
22968;DHT22;11650;48.106;-1.696;2023-06-14T00:33:48;18.10;99.90
22968;DHT22;11650;48.106;-1.696;2023-06-14T00:36:14;17.90;99.90
22968;DHT22;11650;48.106;-1.696;2023-06-14T00:38:40;17.80;99.90
22968;DHT22;11650;48.106;-1.696;2023-06-14T00:41:05;17.90;99.90
22968;DHT22;11650;48.106;-1.696;2023-06-14T00:43:31;17.80;99.90
22968;DHT22;11650;48.106;-1.696;2023-06-14T00:45:57;17.80;99.90
22968;DHT22;11650;48.106;-1.696;2023-06-14T00:48:23;17.90;99.90
22968;DHT22;11650;48.106;-1.696;2023-06-14T00:50:50;17.80;99.90
22968;DHT22;11650;48.106;-1.696;2023-06-14T00:53:18;17.90;99.90
22968;DHT22;11650;48.106;-1.696;2023-06-14T00:55:46;17.80;99.90
22968;DHT22;11650;48.106;-1.696;2023-06-14T00:58:12;17.90;99.90
22968;DHT22;11650;48.106;-1.696;2023-06-14T01:00:39;17.90;99.90
22968;DHT22;11650;48.106;-1.696;2023-06-14T01:03:04;17.80;99.90
22968;DHT22;11650;48.106;-1.696;2023-06-14T01:05:31;17.80;99.90
22968;DHT22;11650;48.106;-1.696;2023-06-14T01:08:19;17.70;99.90
22968;DHT22;11650;48.106;-1.696;2023-06-14T01:10:59;17.80;99.90
22968;DHT22;11650;48.106;-1.696;2023-06-14T01:13:34;17.60;99.90
22968;DHT22;11650;48.106;-1.696;2023-06-14T01:16:00;17.70;99.90
22968;DHT22;11650;48.106;-1.696;2023-06-14T01:18:28;17.60;99.90
22968;DHT22;11650;48.106;-1.696;2023-06-14T01:20:55;17.50;99.90
22968;DHT22;11650;48.106;-1.696;2023-06-14T01:23:22;17.50;99.90
22968;DHT22;11650;48.106;-1.696;2023-06-14T01:25:49;17.40;99.90
22968;DHT22;11650;48.106;-1.696;2023-06-14T01:28:19;17.40;99.90
22968;DHT22;11650;48.106;-1.696;2023-06-14T01:30:51;17.40;99.90
22968;DHT22;11650;48.106;-1.696;2023-06-14T01:33:22;17.40;99.90
22968;DHT22;11650;48.106;-1.696;2023-06-14T01:35:51;17.30;99.90
22968;DHT22;11650;48.106;-1.696;2023-06-14T01:38:23;17.30;99.90
22968;DHT22;11650;48.106;-1.696;2023-06-14T01:40:50;17.30;99.90
22968;DHT22;11650;48.106;-1.696;2023-06-14T01:43:18;17.30;99.90
22968;DHT22;11650;48.106;-1.696;2023-06-14T01:45:46;17.30;99.90
22968;DHT22;11650;48.106;-1.696;2023-06-14T01:48:13;17.20;99.90
22968;DHT22;11650;48.106;-1.696;2023-06-14T01:50:39;17.20;99.90
22968;DHT22;11650;48.106;-1.696;2023-06-14T01:53:08;17.20;99.90
22968;DHT22;11650;48.106;-1.696;2023-06-14T01:55:34;17.10;99.90
22968;DHT22;11650;48.106;-1.696;2023-06-14T01:58:03;17.10;99.90
22968;DHT22;11650;48.106;-1.696;2023-06-14T02:00:29;17.00;99.90
22968;DHT22;11650;48.106;-1.696;2023-06-14T02:02:55;16.90;99.90
22968;DHT22;11650;48.106;-1.696;2023-06-14T02:05:21;16.90;99.90
22968;DHT22;11650;48.106;-1.696;2023-06-14T02:07:47;17.00;99.90
22968;DHT22;11650;48.106;-1.696;2023-06-14T02:10:13;16.90;99.90
22968;DHT22;11650;48.106;-1.696;2023-06-14T02:12:39;17.00;99.90
22968;DHT22;11650;48.106;-1.696;2023-06-14T02:15:05;17.10;99.90
22968;DHT22;11650;48.106;-1.696;2023-06-14T02:17:31;17.20;99.90
22968;DHT22;11650;48.106;-1.696;2023-06-14T02:19:57;17.20;99.90
22968;DHT22;11650;48.106;-1.696;2023-06-14T02:22:23;17.10;99.90
22968;DHT22;11650;48.106;-1.696;2023-06-14T02:24:48;17.10;99.90
22968;DHT22;11650;48.106;-1.696;2023-06-14T02:27:14;17.00;99.90
22968;DHT22;11650;48.106;-1.696;2023-06-14T02:29:40;16.90;99.90
22968;DHT22;11650;48.106;-1.696;2023-06-14T02:32:06;16.90;99.90
22968;DHT22;11650;48.106;-1.696;2023-06-14T02:34:33;16.80;99.90
22968;DHT22;11650;48.106;-1.696;2023-06-14T02:36:59;16.80;99.90
22968;DHT22;11650;48.106;-1.696;2023-06-14T02:39:25;16.70;99.90
22968;DHT22;11650;48.106;-1.696;2023-06-14T02:41:51;16.80;99.90
22968;DHT22;11650;48.106;-1.696;2023-06-14T02:44:23;16.80;99.90
22968;DHT22;11650;48.106;-1.696;2023-06-14T02:46:49;16.80;99.90
22968;DHT22;11650;48.106;-1.696;2023-06-14T02:49:14;16.90;99.90
22968;DHT22;11650;48.106;-1.696;2023-06-14T02:51:40;16.80;99.90
22968;DHT22;11650;48.106;-1.696;2023-06-14T02:54:06;16.80;99.90
22968;DHT22;11650;48.106;-1.696;2023-06-14T02:56:31;16.80;99.90
22968;DHT22;11650;48.106;-1.696;2023-06-14T02:58:57;16.70;99.90
22968;DHT22;11650;48.106;-1.696;2023-06-14T03:01:25;16.70;99.90
22968;DHT22;11650;48.106;-1.696;2023-06-14T03:03:59;16.90;99.90
22968;DHT22;11650;48.106;-1.696;2023-06-14T03:06:24;16.90;99.90
22968;DHT22;11650;48.106;-1.696;2023-06-14T03:08:50;16.80;99.90
22968;DHT22;11650;48.106;-1.696;2023-06-14T03:11:17;16.80;99.90
22968;DHT22;11650;48.106;-1.696;2023-06-14T03:13:46;16.80;99.90
22968;DHT22;11650;48.106;-1.696;2023-06-14T03:16:12;16.70;99.90
22968;DHT22;11650;48.106;-1.696;2023-06-14T03:18:37;16.70;99.90
22968;DHT22;11650;48.106;-1.696;2023-06-14T03:21:03;16.70;99.90
22968;DHT22;11650;48.106;-1.696;2023-06-14T03:23:30;16.60;99.90
22968;DHT22;11650;48.106;-1.696;2023-06-14T03:25:56;16.60;99.90
22968;DHT22;11650;48.106;-1.696;2023-06-14T03:28:22;16.60;99.90
22968;DHT22;11650;48.106;-1.696;2023-06-14T03:30:48;16.70;99.90
22968;DHT22;11650;48.106;-1.696;2023-06-14T03:33:13;16.60;99.90
22968;DHT22;11650;48.106;-1.696;2023-06-14T03:35:39;16.70;99.90
22968;DHT22;11650;48.106;-1.696;2023-06-14T03:38:05;16.60;99.90
22968;DHT22;11650;48.106;-1.696;2023-06-14T03:40:30;16.60;99.90
22968;DHT22;11650;48.106;-1.696;2023-06-14T03:42:56;16.50;99.90
22968;DHT22;11650;48.106;-1.696;2023-06-14T03:45:22;16.50;99.90
22968;DHT22;11650;48.106;-1.696;2023-06-14T03:47:48;16.50;99.90
22968;DHT22;11650;48.106;-1.696;2023-06-14T03:50:13;16.40;99.90
22968;DHT22;11650;48.106;-1.696;2023-06-14T03:52:39;16.40;99.90
22968;DHT22;11650;48.106;-1.696;2023-06-14T03:55:08;16.40;99.90
22968;DHT22;11650;48.106;-1.696;2023-06-14T03:57:34;16.40;99.90
22968;DHT22;11650;48.106;-1.696;2023-06-14T03:59:59;16.40;99.90
22968;DHT22;11650;48.106;-1.696;2023-06-14T04:02:25;16.40;99.90
22968;DHT22;11650;48.106;-1.696;2023-06-14T04:04:54;16.40;99.90
22968;DHT22;11650;48.106;-1.696;2023-06-14T04:07:20;16.30;99.90
22968;DHT22;11650;48.106;-1.696;2023-06-14T04:09:46;16.40;99.90
22968;DHT22;11650;48.106;-1.696;2023-06-14T04:12:12;16.40;99.90
22968;DHT22;11650;48.106;-1.696;2023-06-14T04:14:39;16.30;99.90
22968;DHT22;11650;48.106;-1.696;2023-06-14T04:17:05;16.30;99.90
22968;DHT22;11650;48.106;-1.696;2023-06-14T04:19:30;16.20;99.90
22968;DHT22;11650;48.106;-1.696;2023-06-14T04:21:56;16.30;99.90
22968;DHT22;11650;48.106;-1.696;2023-06-14T04:24:22;16.30;99.90
22968;DHT22;11650;48.106;-1.696;2023-06-14T04:26:49;16.30;99.90
22968;DHT22;11650;48.106;-1.696;2023-06-14T04:29:15;16.30;99.90
22968;DHT22;11650;48.106;-1.696;2023-06-14T04:31:44;16.30;99.90
22968;DHT22;11650;48.106;-1.696;2023-06-14T04:34:10;16.40;99.90
22968;DHT22;11650;48.106;-1.696;2023-06-14T04:36:41;16.30;99.90
22968;DHT22;11650;48.106;-1.696;2023-06-14T04:39:17;16.30;99.90
22968;DHT22;11650;48.106;-1.696;2023-06-14T04:41:44;16.30;99.90
22968;DHT22;11650;48.106;-1.696;2023-06-14T04:44:09;16.40;99.90
22968;DHT22;11650;48.106;-1.696;2023-06-14T04:46:36;16.20;99.90
22968;DHT22;11650;48.106;-1.696;2023-06-14T04:49:14;16.30;99.90
22968;DHT22;11650;48.106;-1.696;2023-06-14T04:51:41;16.30;99.90
22968;DHT22;11650;48.106;-1.696;2023-06-14T04:54:08;16.30;99.90
22968;DHT22;11650;48.106;-1.696;2023-06-14T04:56:41;16.40;99.90
22968;DHT22;11650;48.106;-1.696;2023-06-14T04:59:07;16.40;99.90
22968;DHT22;11650;48.106;-1.696;2023-06-14T05:01:34;16.40;99.90
22968;DHT22;11650;48.106;-1.696;2023-06-14T05:04:01;16.50;99.90
22968;DHT22;11650;48.106;-1.696;2023-06-14T05:06:26;16.50;99.90
22968;DHT22;11650;48.106;-1.696;2023-06-14T05:08:53;16.50;99.90
22968;DHT22;11650;48.106;-1.696;2023-06-14T05:11:19;16.60;99.90
22968;DHT22;11650;48.106;-1.696;2023-06-14T05:13:45;16.60;99.90
22968;DHT22;11650;48.106;-1.696;2023-06-14T05:16:12;16.80;99.90
22968;DHT22;11650;48.106;-1.696;2023-06-14T05:18:38;16.80;99.90
22968;DHT22;11650;48.106;-1.696;2023-06-14T05:21:05;16.80;99.90
22968;DHT22;11650;48.106;-1.696;2023-06-14T05:23:31;16.70;99.90
22968;DHT22;11650;48.106;-1.696;2023-06-14T05:25:57;16.80;99.90
22968;DHT22;11650;48.106;-1.696;2023-06-14T05:28:23;16.70;99.90
22968;DHT22;11650;48.106;-1.696;2023-06-14T05:30:49;16.70;99.90
22968;DHT22;11650;48.106;-1.696;2023-06-14T05:33:14;16.70;99.90
22968;DHT22;11650;48.106;-1.696;2023-06-14T05:35:40;16.90;99.90
22968;DHT22;11650;48.106;-1.696;2023-06-14T05:38:05;17.10;99.90
22968;DHT22;11650;48.106;-1.696;2023-06-14T05:40:33;17.00;99.90
22968;DHT22;11650;48.106;-1.696;2023-06-14T05:42:58;17.00;99.90
22968;DHT22;11650;48.106;-1.696;2023-06-14T05:45:24;17.10;99.90
22968;DHT22;11650;48.106;-1.696;2023-06-14T05:47:50;17.10;99.90
22968;DHT22;11650;48.106;-1.696;2023-06-14T05:50:16;17.20;99.90
22968;DHT22;11650;48.106;-1.696;2023-06-14T05:52:41;17.30;99.90
22968;DHT22;11650;48.106;-1.696;2023-06-14T05:55:07;17.30;99.90
22968;DHT22;11650;48.106;-1.696;2023-06-14T05:57:33;17.30;99.90
22968;DHT22;11650;48.106;-1.696;2023-06-14T05:59:59;17.30;99.90
22968;DHT22;11650;48.106;-1.696;2023-06-14T06:02:24;17.20;99.90
22968;DHT22;11650;48.106;-1.696;2023-06-14T06:04:50;17.30;99.90
22968;DHT22;11650;48.106;-1.696;2023-06-14T06:07:15;17.30;99.90
22968;DHT22;11650;48.106;-1.696;2023-06-14T06:09:41;17.60;99.90
22968;DHT22;11650;48.106;-1.696;2023-06-14T06:12:07;17.60;99.90
22968;DHT22;11650;48.106;-1.696;2023-06-14T06:14:33;17.80;99.90
22968;DHT22;11650;48.106;-1.696;2023-06-14T06:16:59;17.80;99.90
22968;DHT22;11650;48.106;-1.696;2023-06-14T06:19:24;17.80;99.90
22968;DHT22;11650;48.106;-1.696;2023-06-14T06:21:50;17.90;99.90
22968;DHT22;11650;48.106;-1.696;2023-06-14T06:24:16;18.10;99.90
22968;DHT22;11650;48.106;-1.696;2023-06-14T06:26:42;18.20;99.90
22968;DHT22;11650;48.106;-1.696;2023-06-14T06:29:07;18.40;99.90
22968;DHT22;11650;48.106;-1.696;2023-06-14T06:31:33;18.50;99.90
22968;DHT22;11650;48.106;-1.696;2023-06-14T06:33:59;18.40;99.90
22968;DHT22;11650;48.106;-1.696;2023-06-14T06:36:24;18.50;99.90
22968;DHT22;11650;48.106;-1.696;2023-06-14T06:38:50;18.50;99.90
22968;DHT22;11650;48.106;-1.696;2023-06-14T06:41:16;18.50;99.90
22968;DHT22;11650;48.106;-1.696;2023-06-14T06:43:42;18.40;99.90
22968;DHT22;11650;48.106;-1.696;2023-06-14T06:46:07;18.60;99.90
22968;DHT22;11650;48.106;-1.696;2023-06-14T06:48:33;18.80;99.90
22968;DHT22;11650;48.106;-1.696;2023-06-14T06:50:59;18.80;99.90
22968;DHT22;11650;48.106;-1.696;2023-06-14T06:53:25;18.80;99.90
22968;DHT22;11650;48.106;-1.696;2023-06-14T06:55:50;18.80;99.90
22968;DHT22;11650;48.106;-1.696;2023-06-14T06:58:16;18.70;99.90
22968;DHT22;11650;48.106;-1.696;2023-06-14T07:00:42;18.90;99.90
22968;DHT22;11650;48.106;-1.696;2023-06-14T07:03:07;19.10;99.90
22968;DHT22;11650;48.106;-1.696;2023-06-14T07:05:33;19.00;99.90
22968;DHT22;11650;48.106;-1.696;2023-06-14T07:08:00;19.00;99.90
22968;DHT22;11650;48.106;-1.696;2023-06-14T07:10:26;19.00;99.90
22968;DHT22;11650;48.106;-1.696;2023-06-14T07:12:51;18.90;99.90
22968;DHT22;11650;48.106;-1.696;2023-06-14T07:15:17;19.10;99.90
22968;DHT22;11650;48.106;-1.696;2023-06-14T07:17:42;19.40;99.90
22968;DHT22;11650;48.106;-1.696;2023-06-14T07:20:09;19.50;99.90
22968;DHT22;11650;48.106;-1.696;2023-06-14T07:22:41;19.60;99.90
22968;DHT22;11650;48.106;-1.696;2023-06-14T07:25:11;19.70;99.90
22968;DHT22;11650;48.106;-1.696;2023-06-14T07:27:43;19.80;99.90
22968;DHT22;11650;48.106;-1.696;2023-06-14T07:30:09;19.90;99.90
22968;DHT22;11650;48.106;-1.696;2023-06-14T07:32:36;20.00;99.90
22968;DHT22;11650;48.106;-1.696;2023-06-14T07:35:01;20.00;99.90
22968;DHT22;11650;48.106;-1.696;2023-06-14T07:37:28;20.00;99.90
22968;DHT22;11650;48.106;-1.696;2023-06-14T07:39:54;20.20;99.90
22968;DHT22;11650;48.106;-1.696;2023-06-14T07:42:19;20.30;99.90
22968;DHT22;11650;48.106;-1.696;2023-06-14T07:44:45;20.20;99.90
22968;DHT22;11650;48.106;-1.696;2023-06-14T07:47:10;20.40;99.90
22968;DHT22;11650;48.106;-1.696;2023-06-14T07:49:36;20.40;99.90
22968;DHT22;11650;48.106;-1.696;2023-06-14T07:52:03;20.50;99.90
22968;DHT22;11650;48.106;-1.696;2023-06-14T07:54:30;20.50;99.90
22968;DHT22;11650;48.106;-1.696;2023-06-14T07:56:57;20.80;99.90
22968;DHT22;11650;48.106;-1.696;2023-06-14T07:59:24;20.80;99.90
22968;DHT22;11650;48.106;-1.696;2023-06-14T08:01:49;21.00;99.90
22968;DHT22;11650;48.106;-1.696;2023-06-14T08:04:15;21.00;99.90
22968;DHT22;11650;48.106;-1.696;2023-06-14T08:06:41;21.30;99.90
22968;DHT22;11650;48.106;-1.696;2023-06-14T08:09:10;21.20;99.90
22968;DHT22;11650;48.106;-1.696;2023-06-14T08:11:36;21.40;99.90
22968;DHT22;11650;48.106;-1.696;2023-06-14T08:14:02;21.40;99.90
22968;DHT22;11650;48.106;-1.696;2023-06-14T08:16:27;21.60;99.90
22968;DHT22;11650;48.106;-1.696;2023-06-14T08:18:53;21.60;99.90
22968;DHT22;11650;48.106;-1.696;2023-06-14T08:21:19;21.80;99.90
22968;DHT22;11650;48.106;-1.696;2023-06-14T08:23:44;21.90;99.90
22968;DHT22;11650;48.106;-1.696;2023-06-14T08:26:10;22.00;99.90
22968;DHT22;11650;48.106;-1.696;2023-06-14T08:28:36;22.00;99.90
22968;DHT22;11650;48.106;-1.696;2023-06-14T08:31:03;22.00;99.90
22968;DHT22;11650;48.106;-1.696;2023-06-14T08:33:28;22.10;99.90
22968;DHT22;11650;48.106;-1.696;2023-06-14T08:35:54;22.20;99.90
22968;DHT22;11650;48.106;-1.696;2023-06-14T08:38:20;22.30;99.90
22968;DHT22;11650;48.106;-1.696;2023-06-14T08:40:47;22.50;99.90
22968;DHT22;11650;48.106;-1.696;2023-06-14T08:43:15;22.60;99.90
22968;DHT22;11650;48.106;-1.696;2023-06-14T08:45:41;22.80;99.90
22968;DHT22;11650;48.106;-1.696;2023-06-14T08:48:07;23.00;99.90
22968;DHT22;11650;48.106;-1.696;2023-06-14T08:50:34;23.10;99.90
22968;DHT22;11650;48.106;-1.696;2023-06-14T08:53:02;23.50;99.90
22968;DHT22;11650;48.106;-1.696;2023-06-14T08:55:29;23.70;99.90
22968;DHT22;11650;48.106;-1.696;2023-06-14T08:57:56;23.90;99.90
22968;DHT22;11650;48.106;-1.696;2023-06-14T09:00:26;23.80;99.90
22968;DHT22;11650;48.106;-1.696;2023-06-14T09:02:53;23.80;99.90
22968;DHT22;11650;48.106;-1.696;2023-06-14T09:05:24;23.70;99.90
22968;DHT22;11650;48.106;-1.696;2023-06-14T09:07:50;23.60;99.90
22968;DHT22;11650;48.106;-1.696;2023-06-14T09:10:16;23.70;99.90
22968;DHT22;11650;48.106;-1.696;2023-06-14T09:12:42;23.70;99.90
22968;DHT22;11650;48.106;-1.696;2023-06-14T09:15:09;23.60;99.90
22968;DHT22;11650;48.106;-1.696;2023-06-14T09:17:38;23.70;99.90
22968;DHT22;11650;48.106;-1.696;2023-06-14T09:20:05;24.00;99.90
22968;DHT22;11650;48.106;-1.696;2023-06-14T09:22:35;24.00;99.90
22968;DHT22;11650;48.106;-1.696;2023-06-14T09:25:01;24.00;99.90
22968;DHT22;11650;48.106;-1.696;2023-06-14T09:27:27;24.10;99.90
22968;DHT22;11650;48.106;-1.696;2023-06-14T09:29:53;24.20;99.90
22968;DHT22;11650;48.106;-1.696;2023-06-14T09:32:20;24.40;99.90
22968;DHT22;11650;48.106;-1.696;2023-06-14T09:34:46;24.40;99.90
22968;DHT22;11650;48.106;-1.696;2023-06-14T09:37:12;24.30;99.90
22968;DHT22;11650;48.106;-1.696;2023-06-14T09:39:50;24.70;99.90
22968;DHT22;11650;48.106;-1.696;2023-06-14T09:42:17;24.60;99.90
22968;DHT22;11650;48.106;-1.696;2023-06-14T09:44:49;24.60;99.90
22968;DHT22;11650;48.106;-1.696;2023-06-14T09:47:15;24.60;99.90
22968;DHT22;11650;48.106;-1.696;2023-06-14T09:49:42;24.70;99.90
22968;DHT22;11650;48.106;-1.696;2023-06-14T09:52:13;24.60;99.90
22968;DHT22;11650;48.106;-1.696;2023-06-14T09:54:41;24.70;99.90
22968;DHT22;11650;48.106;-1.696;2023-06-14T09:57:13;25.00;99.90
22968;DHT22;11650;48.106;-1.696;2023-06-14T09:59:48;25.10;99.90
22968;DHT22;11650;48.106;-1.696;2023-06-14T10:02:29;25.30;99.90
22968;DHT22;11650;48.106;-1.696;2023-06-14T10:05:06;25.40;99.90
22968;DHT22;11650;48.106;-1.696;2023-06-14T10:07:55;25.50;99.90
22968;DHT22;11650;48.106;-1.696;2023-06-14T10:10:25;25.40;99.90
22968;DHT22;11650;48.106;-1.696;2023-06-14T10:12:51;25.50;99.90
22968;DHT22;11650;48.106;-1.696;2023-06-14T10:24:03;26.20;99.90
22968;DHT22;11650;48.106;-1.696;2023-06-14T10:26:30;26.20;99.90
22968;DHT22;11650;48.106;-1.696;2023-06-14T10:29:08;26.20;99.90
22968;DHT22;11650;48.106;-1.696;2023-06-14T10:31:45;26.20;99.90
22968;DHT22;11650;48.106;-1.696;2023-06-14T10:34:12;26.30;99.90
22968;DHT22;11650;48.106;-1.696;2023-06-14T10:36:46;26.30;99.90
22968;DHT22;11650;48.106;-1.696;2023-06-14T10:39:25;26.50;99.90
22968;DHT22;11650;48.106;-1.696;2023-06-14T10:41:55;26.50;99.90
22968;DHT22;11650;48.106;-1.696;2023-06-14T10:46:52;27.10;99.90
22968;DHT22;11650;48.106;-1.696;2023-06-14T10:49:19;27.10;99.90
22968;DHT22;11650;48.106;-1.696;2023-06-14T10:51:49;27.50;99.90
22968;DHT22;11650;48.106;-1.696;2023-06-14T10:54:16;27.50;99.90
22968;DHT22;11650;48.106;-1.696;2023-06-14T10:56:49;27.70;99.90
22968;DHT22;11650;48.106;-1.696;2023-06-14T10:59:16;27.70;99.90
22968;DHT22;11650;48.106;-1.696;2023-06-14T11:04:44;27.90;99.90
22968;DHT22;11650;48.106;-1.696;2023-06-14T11:10:07;27.40;99.90
22968;DHT22;11650;48.106;-1.696;2023-06-14T11:12:36;27.70;99.90
22968;DHT22;11650;48.106;-1.696;2023-06-14T11:15:05;27.90;99.90
22968;DHT22;11650;48.106;-1.696;2023-06-14T11:17:33;28.10;99.90
22968;DHT22;11650;48.106;-1.696;2023-06-14T11:20:12;28.20;99.90
22968;DHT22;11650;48.106;-1.696;2023-06-14T11:22:42;28.20;99.90
22968;DHT22;11650;48.106;-1.696;2023-06-14T11:25:12;28.10;99.90
22968;DHT22;11650;48.106;-1.696;2023-06-14T11:27:37;27.80;99.90
22968;DHT22;11650;48.106;-1.696;2023-06-14T11:30:06;27.90;99.90
22968;DHT22;11650;48.106;-1.696;2023-06-14T11:32:32;27.70;99.90
22968;DHT22;11650;48.106;-1.696;2023-06-14T11:34:58;28.20;99.90
22968;DHT22;11650;48.106;-1.696;2023-06-14T11:37:26;28.40;99.90
22968;DHT22;11650;48.106;-1.696;2023-06-14T11:39:57;28.50;99.90
22968;DHT22;11650;48.106;-1.696;2023-06-14T11:42:24;28.70;99.90
22968;DHT22;11650;48.106;-1.696;2023-06-14T11:44:50;28.80;99.90
22968;DHT22;11650;48.106;-1.696;2023-06-14T11:47:16;29.30;99.90
22968;DHT22;11650;48.106;-1.696;2023-06-14T11:49:41;29.60;99.90
22968;DHT22;11650;48.106;-1.696;2023-06-14T11:52:07;29.90;99.90
22968;DHT22;11650;48.106;-1.696;2023-06-14T11:54:33;29.90;99.90
22968;DHT22;11650;48.106;-1.696;2023-06-14T11:56:59;29.80;99.90
22968;DHT22;11650;48.106;-1.696;2023-06-14T11:59:25;29.70;99.90
22968;DHT22;11650;48.106;-1.696;2023-06-14T12:01:53;29.50;99.90
22968;DHT22;11650;48.106;-1.696;2023-06-14T12:04:29;29.40;99.90
22968;DHT22;11650;48.106;-1.696;2023-06-14T12:06:55;29.40;99.90
22968;DHT22;11650;48.106;-1.696;2023-06-14T12:09:23;29.20;99.90
22968;DHT22;11650;48.106;-1.696;2023-06-14T12:11:49;29.50;99.90
22968;DHT22;11650;48.106;-1.696;2023-06-14T12:14:15;29.70;99.90
22968;DHT22;11650;48.106;-1.696;2023-06-14T12:16:42;30.40;99.90
22968;DHT22;11650;48.106;-1.696;2023-06-14T12:19:13;30.30;99.90
22968;DHT22;11650;48.106;-1.696;2023-06-14T12:21:39;30.50;99.90
22968;DHT22;11650;48.106;-1.696;2023-06-14T12:24:06;30.50;99.90
22968;DHT22;11650;48.106;-1.696;2023-06-14T12:26:32;30.50;99.90
22968;DHT22;11650;48.106;-1.696;2023-06-14T12:28:58;30.30;99.90
22968;DHT22;11650;48.106;-1.696;2023-06-14T12:31:25;30.40;99.90
22968;DHT22;11650;48.106;-1.696;2023-06-14T12:33:52;30.40;99.90
22968;DHT22;11650;48.106;-1.696;2023-06-14T12:36:17;30.30;99.90
22968;DHT22;11650;48.106;-1.696;2023-06-14T12:38:44;30.60;99.90
22968;DHT22;11650;48.106;-1.696;2023-06-14T12:41:11;30.70;99.90
22968;DHT22;11650;48.106;-1.696;2023-06-14T12:43:37;31.00;99.90
22968;DHT22;11650;48.106;-1.696;2023-06-14T12:46:03;30.90;99.90
22968;DHT22;11650;48.106;-1.696;2023-06-14T12:48:28;31.20;99.90
22968;DHT22;11650;48.106;-1.696;2023-06-14T12:50:56;31.40;99.90
22968;DHT22;11650;48.106;-1.696;2023-06-14T12:53:23;32.00;99.90
22968;DHT22;11650;48.106;-1.696;2023-06-14T12:55:48;31.80;99.90
22968;DHT22;11650;48.106;-1.696;2023-06-14T12:58:14;31.30;99.90
22968;DHT22;11650;48.106;-1.696;2023-06-14T13:00:42;31.30;99.90
22968;DHT22;11650;48.106;-1.696;2023-06-14T13:03:09;31.80;99.90
22968;DHT22;11650;48.106;-1.696;2023-06-14T13:05:35;31.80;99.90
22968;DHT22;11650;48.106;-1.696;2023-06-14T13:08:01;31.30;99.90
22968;DHT22;11650;48.106;-1.696;2023-06-14T13:10:26;31.20;99.90
22968;DHT22;11650;48.106;-1.696;2023-06-14T13:12:53;31.40;99.90
22968;DHT22;11650;48.106;-1.696;2023-06-14T13:15:19;31.10;99.90
22968;DHT22;11650;48.106;-1.696;2023-06-14T13:17:44;32.00;99.90
22968;DHT22;11650;48.106;-1.696;2023-06-14T13:20:14;32.90;99.90
22968;DHT22;11650;48.106;-1.696;2023-06-14T13:22:41;33.10;99.90
22968;DHT22;11650;48.106;-1.696;2023-06-14T13:25:07;33.00;99.90
22968;DHT22;11650;48.106;-1.696;2023-06-14T13:27:33;31.50;99.90
22968;DHT22;11650;48.106;-1.696;2023-06-14T13:29:58;31.30;99.90
22968;DHT22;11650;48.106;-1.696;2023-06-14T13:32:24;31.50;99.90
22968;DHT22;11650;48.106;-1.696;2023-06-14T13:34:50;32.00;99.90
22968;DHT22;11650;48.106;-1.696;2023-06-14T13:37:16;32.80;99.90
22968;DHT22;11650;48.106;-1.696;2023-06-14T13:39:41;33.70;99.90
22968;DHT22;11650;48.106;-1.696;2023-06-14T13:42:07;34.10;99.90
22968;DHT22;11650;48.106;-1.696;2023-06-14T13:44:33;34.60;99.90
22968;DHT22;11650;48.106;-1.696;2023-06-14T13:46:59;35.10;99.90
22968;DHT22;11650;48.106;-1.696;2023-06-14T13:49:25;34.60;99.90
22968;DHT22;11650;48.106;-1.696;2023-06-14T13:51:50;35.10;99.90
22968;DHT22;11650;48.106;-1.696;2023-06-14T13:54:20;35.00;99.90
22968;DHT22;11650;48.106;-1.696;2023-06-14T13:56:46;34.80;99.90
22968;DHT22;11650;48.106;-1.696;2023-06-14T13:59:12;34.20;99.90
22968;DHT22;11650;48.106;-1.696;2023-06-14T14:01:37;34.80;99.90
22968;DHT22;11650;48.106;-1.696;2023-06-14T14:04:04;35.10;99.90
22968;DHT22;11650;48.106;-1.696;2023-06-14T14:06:30;35.00;99.90
22968;DHT22;11650;48.106;-1.696;2023-06-14T14:08:56;34.60;99.60
22968;DHT22;11650;48.106;-1.696;2023-06-14T14:11:22;34.10;99.70
22968;DHT22;11650;48.106;-1.696;2023-06-14T14:13:48;34.70;99.90
22968;DHT22;11650;48.106;-1.696;2023-06-14T14:16:14;35.80;99.30
22968;DHT22;11650;48.106;-1.696;2023-06-14T14:18:40;36.20;98.50
22968;DHT22;11650;48.106;-1.696;2023-06-14T14:21:05;36.30;98.00
22968;DHT22;11650;48.106;-1.696;2023-06-14T14:23:31;36.20;98.00
22968;DHT22;11650;48.106;-1.696;2023-06-14T14:25:57;35.90;98.10
22968;DHT22;11650;48.106;-1.696;2023-06-14T14:28:23;36.30;97.00
22968;DHT22;11650;48.106;-1.696;2023-06-14T14:30:48;36.70;97.30
22968;DHT22;11650;48.106;-1.696;2023-06-14T14:33:14;37.50;96.70
22968;DHT22;11650;48.106;-1.696;2023-06-14T14:35:43;37.20;96.30
22968;DHT22;11650;48.106;-1.696;2023-06-14T14:38:11;37.30;96.60
22968;DHT22;11650;48.106;-1.696;2023-06-14T14:40:37;37.60;95.90
22968;DHT22;11650;48.106;-1.696;2023-06-14T14:43:02;36.60;95.10
22968;DHT22;11650;48.106;-1.696;2023-06-14T14:45:29;36.50;96.00
22968;DHT22;11650;48.106;-1.696;2023-06-14T14:47:55;36.80;95.20
22968;DHT22;11650;48.106;-1.696;2023-06-14T14:50:21;36.90;95.30
22968;DHT22;11650;48.106;-1.696;2023-06-14T14:52:47;36.10;94.70
22968;DHT22;11650;48.106;-1.696;2023-06-14T14:55:12;36.30;96.10
22968;DHT22;11650;48.106;-1.696;2023-06-14T14:57:38;36.70;94.80
22968;DHT22;11650;48.106;-1.696;2023-06-14T15:00:05;37.30;95.40
22968;DHT22;11650;48.106;-1.696;2023-06-14T15:02:31;36.90;95.00
22968;DHT22;11650;48.106;-1.696;2023-06-14T15:04:57;36.90;95.00
22968;DHT22;11650;48.106;-1.696;2023-06-14T15:07:27;37.30;94.40
22968;DHT22;11650;48.106;-1.696;2023-06-14T15:09:53;37.00;94.20
22968;DHT22;11650;48.106;-1.696;2023-06-14T15:12:19;37.70;93.40
22968;DHT22;11650;48.106;-1.696;2023-06-14T15:14:45;36.70;94.30
22968;DHT22;11650;48.106;-1.696;2023-06-14T15:17:11;38.40;94.50
22968;DHT22;11650;48.106;-1.696;2023-06-14T15:19:37;37.50;93.30
22968;DHT22;11650;48.106;-1.696;2023-06-14T15:22:02;37.90;94.50
22968;DHT22;11650;48.106;-1.696;2023-06-14T15:24:28;38.60;99.20
22968;DHT22;11650;48.106;-1.696;2023-06-14T15:26:56;39.10;94.10
22968;DHT22;11650;48.106;-1.696;2023-06-14T15:29:21;39.60;94.50
22968;DHT22;11650;48.106;-1.696;2023-06-14T15:31:47;39.20;93.40